Blaine, Illinois
Current Conditions -  °F | °C
As of 5:45 AM on Monday 22 Dec 2014 (Local Time) from KJVL Reporting Station
Haze Haze  
Wind Chill: 26°   Ceiling: 3300
Heat Index: 34°   Visibility: 5mi
Dew Point: 32°   Wind: 9mph
Humidity: 93%   Direction: 130°SE
Pressure: 29.89"   Gusts: NA
Location:  42.409°N, 88.8277°W
Report Text: KJVL 221145Z 13008KT 5SM BR OVC033 01/00 A2989 RMK FIRST
Loading
Personal Weather Stations






























Interactive Weather Map New forecast layout! Learn more

10-Day Weather Forecast

Advertisements
Track Severe Weather on mobile